sensor_id;sensor_type;location;lat;lon;timestamp;P1;durP1;ratioP1;P2;durP2;ratioP2
43527;SDS011;52359;42.658;23.320;2022-07-22T00:01:22;47.70;;;7.88;;
43527;SDS011;52359;42.658;23.320;2022-07-22T00:03:48;39.75;;;7.13;;
43527;SDS011;52359;42.658;23.320;2022-07-22T00:06:14;19.83;;;6.75;;
43527;SDS011;52359;42.658;23.320;2022-07-22T00:08:40;29.33;;;6.47;;
43527;SDS011;52359;42.658;23.320;2022-07-22T00:11:06;27.45;;;6.18;;
43527;SDS011;52359;42.658;23.320;2022-07-22T00:13:32;19.52;;;5.28;;
43527;SDS011;52359;42.658;23.320;2022-07-22T00:15:59;29.80;;;5.97;;
43527;SDS011;52359;42.658;23.320;2022-07-22T00:18:25;21.23;;;6.30;;
43527;SDS011;52359;42.658;23.320;2022-07-22T00:20:51;19.02;;;5.70;;
43527;SDS011;52359;42.658;23.320;2022-07-22T00:23:17;22.60;;;6.40;;
43527;SDS011;52359;42.658;23.320;2022-07-22T00:25:43;13.85;;;5.80;;
43527;SDS011;52359;42.658;23.320;2022-07-22T00:28:09;13.23;;;5.63;;
43527;SDS011;52359;42.658;23.320;2022-07-22T00:30:35;18.83;;;5.85;;
43527;SDS011;52359;42.658;23.320;2022-07-22T00:33:01;16.30;;;6.28;;
43527;SDS011;52359;42.658;23.320;2022-07-22T00:35:28;15.95;;;5.03;;
43527;SDS011;52359;42.658;23.320;2022-07-22T00:37:54;11.38;;;5.07;;
43527;SDS011;52359;42.658;23.320;2022-07-22T00:40:20;14.48;;;5.80;;
43527;SDS011;52359;42.658;23.320;2022-07-22T00:42:46;12.02;;;5.68;;
43527;SDS011;52359;42.658;23.320;2022-07-22T00:45:13;14.48;;;5.40;;
43527;SDS011;52359;42.658;23.320;2022-07-22T00:47:39;14.65;;;4.93;;
43527;SDS011;52359;42.658;23.320;2022-07-22T00:50:05;15.23;;;5.50;;
43527;SDS011;52359;42.658;23.320;2022-07-22T00:52:32;18.40;;;5.65;;
43527;SDS011;52359;42.658;23.320;2022-07-22T00:54:59;11.10;;;5.03;;
43527;SDS011;52359;42.658;23.320;2022-07-22T00:57:26;9.25;;;5.22;;
43527;SDS011;52359;42.658;23.320;2022-07-22T00:59:52;10.57;;;5.40;;
43527;SDS011;52359;42.658;23.320;2022-07-22T01:02:18;12.63;;;5.95;;
43527;SDS011;52359;42.658;23.320;2022-07-22T01:04:44;9.60;;;5.53;;
43527;SDS011;52359;42.658;23.320;2022-07-22T01:07:11;16.42;;;5.85;;
43527;SDS011;52359;42.658;23.320;2022-07-22T01:09:37;28.30;;;6.32;;
43527;SDS011;52359;42.658;23.320;2022-07-22T01:12:03;18.70;;;5.60;;
43527;SDS011;52359;42.658;23.320;2022-07-22T01:14:29;19.23;;;6.53;;
43527;SDS011;52359;42.658;23.320;2022-07-22T01:16:55;15.25;;;6.38;;
43527;SDS011;52359;42.658;23.320;2022-07-22T01:19:21;9.18;;;5.22;;
43527;SDS011;52359;42.658;23.320;2022-07-22T01:21:47;12.50;;;5.53;;
43527;SDS011;52359;42.658;23.320;2022-07-22T01:24:13;14.05;;;5.82;;
43527;SDS011;52359;42.658;23.320;2022-07-22T01:26:39;16.40;;;5.50;;
43527;SDS011;52359;42.658;23.320;2022-07-22T01:29:06;10.00;;;5.38;;
43527;SDS011;52359;42.658;23.320;2022-07-22T01:31:33;13.63;;;4.97;;
43527;SDS011;52359;42.658;23.320;2022-07-22T01:33:59;16.23;;;5.95;;
43527;SDS011;52359;42.658;23.320;2022-07-22T01:36:25;18.52;;;5.82;;
43527;SDS011;52359;42.658;23.320;2022-07-22T01:38:51;15.02;;;5.90;;
43527;SDS011;52359;42.658;23.320;2022-07-22T01:41:17;13.52;;;5.53;;
43527;SDS011;52359;42.658;23.320;2022-07-22T01:43:44;15.10;;;5.55;;
43527;SDS011;52359;42.658;23.320;2022-07-22T01:46:10;17.95;;;5.32;;
43527;SDS011;52359;42.658;23.320;2022-07-22T01:48:36;10.48;;;4.63;;
43527;SDS011;52359;42.658;23.320;2022-07-22T01:51:02;10.15;;;5.50;;
43527;SDS011;52359;42.658;23.320;2022-07-22T01:53:28;19.60;;;5.10;;
43527;SDS011;52359;42.658;23.320;2022-07-22T01:55:54;15.85;;;5.35;;
43527;SDS011;52359;42.658;23.320;2022-07-22T01:58:20;17.67;;;5.10;;
43527;SDS011;52359;42.658;23.320;2022-07-22T02:00:46;14.10;;;6.40;;
43527;SDS011;52359;42.658;23.320;2022-07-22T02:03:13;13.35;;;5.28;;
43527;SDS011;52359;42.658;23.320;2022-07-22T02:05:38;15.25;;;6.28;;
43527;SDS011;52359;42.658;23.320;2022-07-22T02:08:05;15.82;;;5.20;;
43527;SDS011;52359;42.658;23.320;2022-07-22T02:10:33;20.80;;;5.10;;
43527;SDS011;52359;42.658;23.320;2022-07-22T02:13:00;14.70;;;5.65;;
43527;SDS011;52359;42.658;23.320;2022-07-22T02:15:26;17.50;;;5.65;;
43527;SDS011;52359;42.658;23.320;2022-07-22T02:17:52;9.73;;;5.55;;
43527;SDS011;52359;42.658;23.320;2022-07-22T02:20:18;24.42;;;6.50;;
43527;SDS011;52359;42.658;23.320;2022-07-22T02:22:44;9.32;;;5.53;;
43527;SDS011;52359;42.658;23.320;2022-07-22T02:25:10;11.13;;;5.88;;
43527;SDS011;52359;42.658;23.320;2022-07-22T02:27:36;20.73;;;5.75;;
43527;SDS011;52359;42.658;23.320;2022-07-22T02:30:03;9.57;;;5.18;;
43527;SDS011;52359;42.658;23.320;2022-07-22T02:32:30;9.90;;;5.25;;
43527;SDS011;52359;42.658;23.320;2022-07-22T02:34:56;9.43;;;5.68;;
43527;SDS011;52359;42.658;23.320;2022-07-22T02:37:21;11.88;;;5.57;;
43527;SDS011;52359;42.658;23.320;2022-07-22T02:39:47;16.88;;;5.30;;
43527;SDS011;52359;42.658;23.320;2022-07-22T02:42:13;16.35;;;6.00;;
43527;SDS011;52359;42.658;23.320;2022-07-22T02:44:39;14.65;;;5.45;;
43527;SDS011;52359;42.658;23.320;2022-07-22T02:47:06;9.85;;;5.43;;
43527;SDS011;52359;42.658;23.320;2022-07-22T02:49:32;11.82;;;5.47;;
43527;SDS011;52359;42.658;23.320;2022-07-22T02:51:58;10.15;;;5.25;;
43527;SDS011;52359;42.658;23.320;2022-07-22T02:54:24;17.00;;;5.32;;
43527;SDS011;52359;42.658;23.320;2022-07-22T02:56:50;10.88;;;4.75;;
43527;SDS011;52359;42.658;23.320;2022-07-22T02:59:16;14.25;;;6.03;;
43527;SDS011;52359;42.658;23.320;2022-07-22T03:01:42;15.13;;;5.43;;
43527;SDS011;52359;42.658;23.320;2022-07-22T03:04:08;15.73;;;5.22;;
43527;SDS011;52359;42.658;23.320;2022-07-22T03:06:34;13.63;;;5.60;;
43527;SDS011;52359;42.658;23.320;2022-07-22T03:09:00;13.88;;;4.90;;
43527;SDS011;52359;42.658;23.320;2022-07-22T03:11:26;17.52;;;5.47;;
43527;SDS011;52359;42.658;23.320;2022-07-22T03:13:53;15.20;;;5.82;;
43527;SDS011;52359;42.658;23.320;2022-07-22T03:16:19;12.88;;;5.07;;
43527;SDS011;52359;42.658;23.320;2022-07-22T03:18:45;14.05;;;6.45;;
43527;SDS011;52359;42.658;23.320;2022-07-22T03:21:11;21.95;;;6.97;;
43527;SDS011;52359;42.658;23.320;2022-07-22T03:23:37;24.13;;;6.57;;
43527;SDS011;52359;42.658;23.320;2022-07-22T03:26:03;23.55;;;6.68;;
43527;SDS011;52359;42.658;23.320;2022-07-22T03:28:29;21.98;;;7.53;;
43527;SDS011;52359;42.658;23.320;2022-07-22T03:30:55;21.75;;;5.53;;
43527;SDS011;52359;42.658;23.320;2022-07-22T03:33:21;17.92;;;6.35;;
43527;SDS011;52359;42.658;23.320;2022-07-22T03:35:47;14.57;;;6.07;;
43527;SDS011;52359;42.658;23.320;2022-07-22T03:38:13;19.25;;;7.03;;
43527;SDS011;52359;42.658;23.320;2022-07-22T03:40:39;17.98;;;6.75;;
43527;SDS011;52359;42.658;23.320;2022-07-22T03:43:05;14.30;;;6.13;;
43527;SDS011;52359;42.658;23.320;2022-07-22T03:45:31;11.18;;;5.72;;
43527;SDS011;52359;42.658;23.320;2022-07-22T03:47:57;14.02;;;6.35;;
43527;SDS011;52359;42.658;23.320;2022-07-22T03:50:23;23.00;;;6.63;;
43527;SDS011;52359;42.658;23.320;2022-07-22T03:52:49;15.90;;;6.07;;
43527;SDS011;52359;42.658;23.320;2022-07-22T03:55:15;16.75;;;6.72;;
43527;SDS011;52359;42.658;23.320;2022-07-22T03:57:42;13.48;;;7.55;;
43527;SDS011;52359;42.658;23.320;2022-07-22T04:00:08;24.88;;;7.05;;
43527;SDS011;52359;42.658;23.320;2022-07-22T04:02:34;15.50;;;6.93;;
43527;SDS011;52359;42.658;23.320;2022-07-22T04:05:00;10.30;;;6.07;;
43527;SDS011;52359;42.658;23.320;2022-07-22T04:07:26;13.70;;;5.53;;
43527;SDS011;52359;42.658;23.320;2022-07-22T04:09:52;12.75;;;7.03;;
43527;SDS011;52359;42.658;23.320;2022-07-22T04:12:30;15.75;;;6.82;;
43527;SDS011;52359;42.658;23.320;2022-07-22T04:14:56;18.65;;;7.18;;
43527;SDS011;52359;42.658;23.320;2022-07-22T04:17:22;24.90;;;7.20;;
43527;SDS011;52359;42.658;23.320;2022-07-22T04:19:48;25.42;;;6.78;;
43527;SDS011;52359;42.658;23.320;2022-07-22T04:22:14;16.42;;;6.60;;
43527;SDS011;52359;42.658;23.320;2022-07-22T04:24:40;22.13;;;6.45;;
43527;SDS011;52359;42.658;23.320;2022-07-22T04:27:06;21.77;;;7.40;;
43527;SDS011;52359;42.658;23.320;2022-07-22T04:29:32;18.95;;;7.43;;
43527;SDS011;52359;42.658;23.320;2022-07-22T04:31:58;17.23;;;7.07;;
43527;SDS011;52359;42.658;23.320;2022-07-22T04:34:25;19.98;;;7.18;;
43527;SDS011;52359;42.658;23.320;2022-07-22T04:36:51;38.67;;;9.23;;
43527;SDS011;52359;42.658;23.320;2022-07-22T04:39:17;31.50;;;8.60;;
43527;SDS011;52359;42.658;23.320;2022-07-22T04:41:43;35.88;;;8.60;;
43527;SDS011;52359;42.658;23.320;2022-07-22T04:44:09;30.70;;;7.85;;
43527;SDS011;52359;42.658;23.320;2022-07-22T04:46:35;29.85;;;7.88;;
43527;SDS011;52359;42.658;23.320;2022-07-22T04:49:01;18.58;;;6.97;;
43527;SDS011;52359;42.658;23.320;2022-07-22T04:51:27;21.48;;;7.38;;
43527;SDS011;52359;42.658;23.320;2022-07-22T04:53:54;21.88;;;8.32;;
43527;SDS011;52359;42.658;23.320;2022-07-22T04:56:20;16.75;;;7.55;;
43527;SDS011;52359;42.658;23.320;2022-07-22T04:58:46;21.52;;;7.40;;
43527;SDS011;52359;42.658;23.320;2022-07-22T05:01:12;30.05;;;8.27;;
43527;SDS011;52359;42.658;23.320;2022-07-22T05:03:39;14.98;;;8.05;;
43527;SDS011;52359;42.658;23.320;2022-07-22T05:06:06;21.38;;;8.45;;
43527;SDS011;52359;42.658;23.320;2022-07-22T05:08:32;26.45;;;8.02;;
43527;SDS011;52359;42.658;23.320;2022-07-22T05:10:58;22.63;;;8.02;;
43527;SDS011;52359;42.658;23.320;2022-07-22T05:13:24;19.67;;;7.75;;
43527;SDS011;52359;42.658;23.320;2022-07-22T05:15:50;26.05;;;8.18;;
43527;SDS011;52359;42.658;23.320;2022-07-22T05:18:16;24.20;;;8.23;;
43527;SDS011;52359;42.658;23.320;2022-07-22T05:20:42;18.95;;;7.70;;
43527;SDS011;52359;42.658;23.320;2022-07-22T05:23:08;17.50;;;8.55;;
43527;SDS011;52359;42.658;23.320;2022-07-22T05:25:34;19.67;;;7.55;;
43527;SDS011;52359;42.658;23.320;2022-07-22T05:28:00;23.40;;;8.00;;
43527;SDS011;52359;42.658;23.320;2022-07-22T05:30:26;20.20;;;7.50;;
43527;SDS011;52359;42.658;23.320;2022-07-22T05:32:52;18.58;;;7.47;;
43527;SDS011;52359;42.658;23.320;2022-07-22T05:35:19;26.75;;;7.95;;
43527;SDS011;52359;42.658;23.320;2022-07-22T05:37:45;21.38;;;7.60;;
43527;SDS011;52359;42.658;23.320;2022-07-22T05:40:11;17.98;;;7.22;;
43527;SDS011;52359;42.658;23.320;2022-07-22T05:42:37;16.25;;;7.60;;
43527;SDS011;52359;42.658;23.320;2022-07-22T05:45:03;24.73;;;7.28;;
43527;SDS011;52359;42.658;23.320;2022-07-22T05:47:30;18.17;;;6.68;;
43527;SDS011;52359;42.658;23.320;2022-07-22T05:49:56;22.38;;;7.75;;
43527;SDS011;52359;42.658;23.320;2022-07-22T05:52:22;26.73;;;6.90;;
43527;SDS011;52359;42.658;23.320;2022-07-22T05:54:48;27.23;;;7.28;;
43527;SDS011;52359;42.658;23.320;2022-07-22T05:57:14;18.35;;;7.43;;
43527;SDS011;52359;42.658;23.320;2022-07-22T05:59:40;32.47;;;7.38;;
43527;SDS011;52359;42.658;23.320;2022-07-22T06:02:06;25.13;;;7.43;;
43527;SDS011;52359;42.658;23.320;2022-07-22T06:04:32;22.98;;;7.95;;
43527;SDS011;52359;42.658;23.320;2022-07-22T06:06:58;18.88;;;6.72;;
43527;SDS011;52359;42.658;23.320;2022-07-22T06:09:24;22.13;;;6.57;;
43527;SDS011;52359;42.658;23.320;2022-07-22T06:11:50;13.70;;;6.50;;
43527;SDS011;52359;42.658;23.320;2022-07-22T06:14:17;22.60;;;7.20;;
43527;SDS011;52359;42.658;23.320;2022-07-22T06:16:43;17.73;;;6.60;;
43527;SDS011;52359;42.658;23.320;2022-07-22T06:19:09;16.75;;;7.03;;
43527;SDS011;52359;42.658;23.320;2022-07-22T06:21:35;20.20;;;6.85;;
43527;SDS011;52359;42.658;23.320;2022-07-22T06:24:04;22.55;;;7.22;;
43527;SDS011;52359;42.658;23.320;2022-07-22T06:26:30;16.90;;;6.85;;
43527;SDS011;52359;42.658;23.320;2022-07-22T06:28:56;17.85;;;7.25;;
43527;SDS011;52359;42.658;23.320;2022-07-22T06:31:22;24.75;;;6.72;;
43527;SDS011;52359;42.658;23.320;2022-07-22T06:33:48;17.75;;;6.88;;
43527;SDS011;52359;42.658;23.320;2022-07-22T06:36:14;15.85;;;6.35;;
43527;SDS011;52359;42.658;23.320;2022-07-22T06:38:42;14.07;;;6.30;;
43527;SDS011;52359;42.658;23.320;2022-07-22T06:41:08;26.33;;;6.82;;
43527;SDS011;52359;42.658;23.320;2022-07-22T06:43:35;28.08;;;7.32;;
43527;SDS011;52359;42.658;23.320;2022-07-22T06:46:01;27.13;;;6.07;;
43527;SDS011;52359;42.658;23.320;2022-07-22T06:48:27;18.55;;;5.93;;
43527;SDS011;52359;42.658;23.320;2022-07-22T06:50:53;12.57;;;6.18;;
43527;SDS011;52359;42.658;23.320;2022-07-22T06:53:20;19.77;;;5.88;;
43527;SDS011;52359;42.658;23.320;2022-07-22T06:55:46;10.10;;;5.35;;
43527;SDS011;52359;42.658;23.320;2022-07-22T06:58:12;15.60;;;5.95;;
43527;SDS011;52359;42.658;23.320;2022-07-22T07:00:38;12.13;;;5.68;;
43527;SDS011;52359;42.658;23.320;2022-07-22T07:03:04;13.40;;;5.78;;
43527;SDS011;52359;42.658;23.320;2022-07-22T07:05:30;15.35;;;5.78;;
43527;SDS011;52359;42.658;23.320;2022-07-22T07:07:56;15.00;;;5.32;;
43527;SDS011;52359;42.658;23.320;2022-07-22T07:10:22;17.15;;;4.82;;
43527;SDS011;52359;42.658;23.320;2022-07-22T07:12:48;12.50;;;4.78;;
43527;SDS011;52359;42.658;23.320;2022-07-22T07:15:15;11.52;;;4.47;;
43527;SDS011;52359;42.658;23.320;2022-07-22T07:17:41;22.35;;;7.03;;
43527;SDS011;52359;42.658;23.320;2022-07-22T07:20:07;15.88;;;5.65;;
43527;SDS011;52359;42.658;23.320;2022-07-22T07:22:33;17.65;;;5.28;;
43527;SDS011;52359;42.658;23.320;2022-07-22T07:25:03;13.98;;;5.30;;
43527;SDS011;52359;42.658;23.320;2022-07-22T07:27:29;14.73;;;4.85;;
43527;SDS011;52359;42.658;23.320;2022-07-22T07:29:55;18.92;;;5.30;;
43527;SDS011;52359;42.658;23.320;2022-07-22T07:32:21;9.30;;;4.30;;
43527;SDS011;52359;42.658;23.320;2022-07-22T07:34:48;17.88;;;5.20;;
43527;SDS011;52359;42.658;23.320;2022-07-22T07:37:14;18.95;;;5.63;;
43527;SDS011;52359;42.658;23.320;2022-07-22T07:39:40;15.57;;;5.15;;
43527;SDS011;52359;42.658;23.320;2022-07-22T07:42:06;17.73;;;4.63;;
43527;SDS011;52359;42.658;23.320;2022-07-22T07:44:32;15.57;;;4.90;;
43527;SDS011;52359;42.658;23.320;2022-07-22T07:46:59;13.88;;;4.95;;
43527;SDS011;52359;42.658;23.320;2022-07-22T07:49:25;10.32;;;5.30;;
43527;SDS011;52359;42.658;23.320;2022-07-22T07:51:51;12.48;;;5.43;;
43527;SDS011;52359;42.658;23.320;2022-07-22T07:54:17;9.55;;;4.35;;
43527;SDS011;52359;42.658;23.320;2022-07-22T07:56:43;12.85;;;5.10;;
43527;SDS011;52359;42.658;23.320;2022-07-22T07:59:09;8.57;;;4.65;;
43527;SDS011;52359;42.658;23.320;2022-07-22T08:01:35;19.40;;;4.40;;
43527;SDS011;52359;42.658;23.320;2022-07-22T08:04:01;13.90;;;4.80;;
43527;SDS011;52359;42.658;23.320;2022-07-22T08:06:27;10.73;;;4.68;;
43527;SDS011;52359;42.658;23.320;2022-07-22T08:08:53;8.45;;;4.70;;
43527;SDS011;52359;42.658;23.320;2022-07-22T08:11:19;18.65;;;4.72;;
43527;SDS011;52359;42.658;23.320;2022-07-22T08:13:46;14.80;;;4.60;;
43527;SDS011;52359;42.658;23.320;2022-07-22T08:16:12;12.43;;;4.38;;
43527;SDS011;52359;42.658;23.320;2022-07-22T08:18:38;10.05;;;4.60;;
43527;SDS011;52359;42.658;23.320;2022-07-22T08:21:05;12.85;;;4.30;;
43527;SDS011;52359;42.658;23.320;2022-07-22T08:23:31;18.13;;;5.05;;
43527;SDS011;52359;42.658;23.320;2022-07-22T08:25:57;15.38;;;4.32;;
43527;SDS011;52359;42.658;23.320;2022-07-22T08:28:23;7.18;;;4.03;;
43527;SDS011;52359;42.658;23.320;2022-07-22T08:30:50;10.32;;;5.38;;
43527;SDS011;52359;42.658;23.320;2022-07-22T08:33:16;11.00;;;6.60;;
43527;SDS011;52359;42.658;23.320;2022-07-22T08:35:42;9.43;;;3.80;;
43527;SDS011;52359;42.658;23.320;2022-07-22T08:38:08;8.73;;;3.58;;
43527;SDS011;52359;42.658;23.320;2022-07-22T08:40:34;12.90;;;4.00;;
43527;SDS011;52359;42.658;23.320;2022-07-22T08:43:00;7.70;;;3.85;;
43527;SDS011;52359;42.658;23.320;2022-07-22T08:45:28;11.95;;;4.18;;
43527;SDS011;52359;42.658;23.320;2022-07-22T08:47:54;6.35;;;3.72;;
43527;SDS011;52359;42.658;23.320;2022-07-22T08:50:20;6.75;;;4.40;;
43527;SDS011;52359;42.658;23.320;2022-07-22T08:52:46;6.38;;;3.88;;
43527;SDS011;52359;42.658;23.320;2022-07-22T08:55:12;12.75;;;4.47;;
43527;SDS011;52359;42.658;23.320;2022-07-22T08:57:43;9.75;;;3.80;;
43527;SDS011;52359;42.658;23.320;2022-07-22T09:00:11;5.87;;;3.43;;
43527;SDS011;52359;42.658;23.320;2022-07-22T09:02:38;11.63;;;3.45;;
43527;SDS011;52359;42.658;23.320;2022-07-22T09:05:06;10.05;;;3.75;;
43527;SDS011;52359;42.658;23.320;2022-07-22T09:07:33;10.98;;;3.47;;
43527;SDS011;52359;42.658;23.320;2022-07-22T09:10:01;20.50;;;4.75;;
43527;SDS011;52359;42.658;23.320;2022-07-22T09:12:27;9.93;;;3.92;;
43527;SDS011;52359;42.658;23.320;2022-07-22T09:14:55;6.10;;;3.90;;
43527;SDS011;52359;42.658;23.320;2022-07-22T09:17:23;9.35;;;4.05;;
43527;SDS011;52359;42.658;23.320;2022-07-22T09:19:49;7.63;;;3.67;;
43527;SDS011;52359;42.658;23.320;2022-07-22T09:24:58;8.27;;;3.88;;
43527;SDS011;52359;42.658;23.320;2022-07-22T09:27:27;8.02;;;3.90;;
43527;SDS011;52359;42.658;23.320;2022-07-22T09:29:54;15.15;;;3.83;;
43527;SDS011;52359;42.658;23.320;2022-07-22T09:32:21;17.90;;;4.30;;
43527;SDS011;52359;42.658;23.320;2022-07-22T09:34:48;8.60;;;4.05;;
43527;SDS011;52359;42.658;23.320;2022-07-22T09:37:14;8.55;;;3.88;;
43527;SDS011;52359;42.658;23.320;2022-07-22T09:39:40;8.90;;;3.95;;
43527;SDS011;52359;42.658;23.320;2022-07-22T09:42:07;9.55;;;3.53;;
43527;SDS011;52359;42.658;23.320;2022-07-22T09:44:33;12.30;;;3.35;;
43527;SDS011;52359;42.658;23.320;2022-07-22T09:46:59;21.08;;;4.97;;
43527;SDS011;52359;42.658;23.320;2022-07-22T09:49:30;12.93;;;4.03;;
43527;SDS011;52359;42.658;23.320;2022-07-22T09:51:56;9.43;;;3.95;;
43527;SDS011;52359;42.658;23.320;2022-07-22T09:54:22;18.02;;;4.68;;
43527;SDS011;52359;42.658;23.320;2022-07-22T09:56:48;7.40;;;3.80;;
43527;SDS011;52359;42.658;23.320;2022-07-22T09:59:14;6.65;;;4.20;;
43527;SDS011;52359;42.658;23.320;2022-07-22T10:01:40;5.35;;;3.40;;
43527;SDS011;52359;42.658;23.320;2022-07-22T10:04:07;10.27;;;4.20;;
43527;SDS011;52359;42.658;23.320;2022-07-22T10:06:34;9.02;;;3.72;;
43527;SDS011;52359;42.658;23.320;2022-07-22T10:09:00;16.15;;;4.10;;
43527;SDS011;52359;42.658;23.320;2022-07-22T10:11:26;4.95;;;3.75;;
43527;SDS011;52359;42.658;23.320;2022-07-22T10:13:52;4.70;;;3.83;;
43527;SDS011;52359;42.658;23.320;2022-07-22T10:16:18;14.25;;;3.95;;
43527;SDS011;52359;42.658;23.320;2022-07-22T10:18:45;20.15;;;5.22;;
43527;SDS011;52359;42.658;23.320;2022-07-22T10:21:12;8.93;;;6.28;;
43527;SDS011;52359;42.658;23.320;2022-07-22T10:26:45;6.75;;;3.72;;
43527;SDS011;52359;42.658;23.320;2022-07-22T10:34:39;6.07;;;3.70;;
43527;SDS011;52359;42.658;23.320;2022-07-22T10:37:35;6.18;;;3.92;;
43527;SDS011;52359;42.658;23.320;2022-07-22T10:45:20;15.27;;;3.95;;
43527;SDS011;52359;42.658;23.320;2022-07-22T10:47:53;12.25;;;3.60;;
43527;SDS011;52359;42.658;23.320;2022-07-22T10:53:12;10.07;;;4.10;;
43527;SDS011;52359;42.658;23.320;2022-07-22T10:55:39;9.25;;;2.80;;
43527;SDS011;52359;42.658;23.320;2022-07-22T11:01:03;8.38;;;3.65;;
43527;SDS011;52359;42.658;23.320;2022-07-22T11:03:29;7.30;;;3.67;;
43527;SDS011;52359;42.658;23.320;2022-07-22T11:05:56;6.95;;;3.55;;
43527;SDS011;52359;42.658;23.320;2022-07-22T11:08:24;4.78;;;3.50;;
43527;SDS011;52359;42.658;23.320;2022-07-22T11:10:51;7.28;;;4.05;;
43527;SDS011;52359;42.658;23.320;2022-07-22T11:13:30;10.88;;;3.90;;
43527;SDS011;52359;42.658;23.320;2022-07-22T11:15:56;6.50;;;3.30;;
43527;SDS011;52359;42.658;23.320;2022-07-22T11:21:10;7.50;;;3.63;;
43527;SDS011;52359;42.658;23.320;2022-07-22T11:23:39;14.02;;;4.45;;
43527;SDS011;52359;42.658;23.320;2022-07-22T11:26:06;8.57;;;3.55;;
43527;SDS011;52359;42.658;23.320;2022-07-22T11:28:38;9.63;;;3.83;;
43527;SDS011;52359;42.658;23.320;2022-07-22T11:31:05;5.13;;;3.13;;
43527;SDS011;52359;42.658;23.320;2022-07-22T11:33:31;8.82;;;4.07;;
43527;SDS011;52359;42.658;23.320;2022-07-22T11:36:01;6.93;;;3.63;;
43527;SDS011;52359;42.658;23.320;2022-07-22T11:38:41;5.28;;;3.83;;
43527;SDS011;52359;42.658;23.320;2022-07-22T11:41:07;3.92;;;3.42;;
43527;SDS011;52359;42.658;23.320;2022-07-22T11:43:40;4.88;;;3.50;;
43527;SDS011;52359;42.658;23.320;2022-07-22T11:46:06;4.80;;;3.05;;
43527;SDS011;52359;42.658;23.320;2022-07-22T11:48:32;13.68;;;3.95;;
43527;SDS011;52359;42.658;23.320;2022-07-22T11:50:59;13.23;;;3.20;;
43527;SDS011;52359;42.658;23.320;2022-07-22T11:53:26;6.57;;;3.55;;
43527;SDS011;52359;42.658;23.320;2022-07-22T11:55:56;12.73;;;3.65;;
43527;SDS011;52359;42.658;23.320;2022-07-22T12:01:00;8.77;;;3.85;;
43527;SDS011;52359;42.658;23.320;2022-07-22T12:03:26;6.82;;;3.42;;
43527;SDS011;52359;42.658;23.320;2022-07-22T12:05:53;8.38;;;3.95;;
43527;SDS011;52359;42.658;23.320;2022-07-22T12:08:19;7.55;;;3.92;;
43527;SDS011;52359;42.658;23.320;2022-07-22T12:10:45;4.75;;;3.17;;
43527;SDS011;52359;42.658;23.320;2022-07-22T12:13:12;14.48;;;4.10;;
43527;SDS011;52359;42.658;23.320;2022-07-22T12:15:39;7.55;;;3.83;;
43527;SDS011;52359;42.658;23.320;2022-07-22T12:18:21;9.10;;;3.78;;
43527;SDS011;52359;42.658;23.320;2022-07-22T12:20:48;9.57;;;4.20;;
43527;SDS011;52359;42.658;23.320;2022-07-22T12:23:14;11.13;;;4.18;;
43527;SDS011;52359;42.658;23.320;2022-07-22T12:25:53;10.23;;;3.78;;
43527;SDS011;52359;42.658;23.320;2022-07-22T12:28:20;12.05;;;3.97;;
43527;SDS011;52359;42.658;23.320;2022-07-22T12:30:46;3.85;;;3.42;;
43527;SDS011;52359;42.658;23.320;2022-07-22T12:33:13;12.52;;;3.50;;
43527;SDS011;52359;42.658;23.320;2022-07-22T12:35:40;11.52;;;3.60;;
43527;SDS011;52359;42.658;23.320;2022-07-22T12:38:09;14.23;;;3.88;;
43527;SDS011;52359;42.658;23.320;2022-07-22T12:40:36;9.50;;;3.10;;
43527;SDS011;52359;42.658;23.320;2022-07-22T12:43:06;5.45;;;3.53;;
43527;SDS011;52359;42.658;23.320;2022-07-22T12:45:34;4.68;;;3.60;;
43527;SDS011;52359;42.658;23.320;2022-07-22T12:50:32;7.47;;;3.15;;
43527;SDS011;52359;42.658;23.320;2022-07-22T12:53:00;8.57;;;3.67;;
43527;SDS011;52359;42.658;23.320;2022-07-22T12:55:30;10.60;;;3.50;;
43527;SDS011;52359;42.658;23.320;2022-07-22T12:57:57;5.78;;;3.65;;
43527;SDS011;52359;42.658;23.320;2022-07-22T13:00:24;18.70;;;4.18;;
43527;SDS011;52359;42.658;23.320;2022-07-22T13:02:51;15.07;;;4.50;;
43527;SDS011;52359;42.658;23.320;2022-07-22T13:05:17;15.52;;;3.58;;
43527;SDS011;52359;42.658;23.320;2022-07-22T13:07:43;10.95;;;3.60;;
43527;SDS011;52359;42.658;23.320;2022-07-22T13:10:10;18.90;;;4.10;;
43527;SDS011;52359;42.658;23.320;2022-07-22T13:12:36;18.00;;;3.65;;
43527;SDS011;52359;42.658;23.320;2022-07-22T13:15:02;13.73;;;3.33;;
43527;SDS011;52359;42.658;23.320;2022-07-22T13:17:28;10.60;;;3.50;;
43527;SDS011;52359;42.658;23.320;2022-07-22T13:19:55;15.65;;;3.55;;
43527;SDS011;52359;42.658;23.320;2022-07-22T13:22:21;12.30;;;3.20;;
43527;SDS011;52359;42.658;23.320;2022-07-22T13:24:47;5.30;;;3.03;;
43527;SDS011;52359;42.658;23.320;2022-07-22T13:27:13;15.23;;;4.20;;
43527;SDS011;52359;42.658;23.320;2022-07-22T13:29:39;10.45;;;3.13;;
43527;SDS011;52359;42.658;23.320;2022-07-22T13:32:05;5.82;;;3.03;;
43527;SDS011;52359;42.658;23.320;2022-07-22T13:34:31;18.40;;;3.20;;
43527;SDS011;52359;42.658;23.320;2022-07-22T13:36:57;11.27;;;3.85;;
43527;SDS011;52359;42.658;23.320;2022-07-22T13:39:23;11.18;;;4.13;;
43527;SDS011;52359;42.658;23.320;2022-07-22T13:41:49;4.85;;;3.10;;
43527;SDS011;52359;42.658;23.320;2022-07-22T13:44:15;12.23;;;3.55;;
43527;SDS011;52359;42.658;23.320;2022-07-22T13:46:42;10.23;;;3.13;;
43527;SDS011;52359;42.658;23.320;2022-07-22T13:49:08;11.93;;;2.97;;
43527;SDS011;52359;42.658;23.320;2022-07-22T13:51:34;6.57;;;2.97;;
43527;SDS011;52359;42.658;23.320;2022-07-22T13:54:00;10.82;;;3.08;;
43527;SDS011;52359;42.658;23.320;2022-07-22T13:56:26;6.85;;;2.78;;
43527;SDS011;52359;42.658;23.320;2022-07-22T13:58:52;10.60;;;3.50;;
43527;SDS011;52359;42.658;23.320;2022-07-22T14:01:18;13.48;;;3.33;;
43527;SDS011;52359;42.658;23.320;2022-07-22T14:03:44;5.70;;;3.65;;
43527;SDS011;52359;42.658;23.320;2022-07-22T14:06:10;9.65;;;3.67;;
43527;SDS011;52359;42.658;23.320;2022-07-22T14:08:36;7.97;;;3.30;;
43527;SDS011;52359;42.658;23.320;2022-07-22T14:11:03;9.45;;;3.30;;
43527;SDS011;52359;42.658;23.320;2022-07-22T14:13:29;10.77;;;3.45;;
43527;SDS011;52359;42.658;23.320;2022-07-22T14:15:55;6.80;;;3.13;;
43527;SDS011;52359;42.658;23.320;2022-07-22T14:18:21;8.35;;;3.10;;
43527;SDS011;52359;42.658;23.320;2022-07-22T14:20:47;8.00;;;2.97;;
43527;SDS011;52359;42.658;23.320;2022-07-22T14:23:13;8.98;;;3.65;;
43527;SDS011;52359;42.658;23.320;2022-07-22T14:25:41;8.57;;;3.30;;
43527;SDS011;52359;42.658;23.320;2022-07-22T14:28:07;9.57;;;3.70;;
43527;SDS011;52359;42.658;23.320;2022-07-22T14:30:33;10.57;;;3.28;;
43527;SDS011;52359;42.658;23.320;2022-07-22T14:33:01;8.10;;;3.00;;
43527;SDS011;52359;42.658;23.320;2022-07-22T14:35:27;6.35;;;2.85;;
43527;SDS011;52359;42.658;23.320;2022-07-22T14:37:53;8.82;;;3.40;;
43527;SDS011;52359;42.658;23.320;2022-07-22T14:40:19;10.57;;;3.67;;
43527;SDS011;52359;42.658;23.320;2022-07-22T14:42:46;11.10;;;3.47;;
43527;SDS011;52359;42.658;23.320;2022-07-22T14:45:13;17.83;;;4.80;;
43527;SDS011;52359;42.658;23.320;2022-07-22T14:47:39;10.10;;;3.53;;
43527;SDS011;52359;42.658;23.320;2022-07-22T14:50:05;10.25;;;3.83;;
43527;SDS011;52359;42.658;23.320;2022-07-22T14:52:32;11.18;;;3.30;;